Time;durP1;ratioP1;P1;durP2;ratioP2;P2;SDS_P1;SDS_P2;PMS_P1;PMS_P2;Temp;Humidity;BMP_temperature;BMP_pressure;BME280_temperature;BME280_humidity;BME280_pressure;Samples;Min_cycle;Max_cycle;Signal;HPM_P1;HPM_P2
2023/10/11 00:00:38;;;;;;;15.73;3.70;;;;;;;14.70;100.00;96682.09;5035508;28;20208;-70
2023/10/11 00:03:14;;;;;;;13.17;3.43;;;;;;;14.89;100.00;96682.28;5035668;28;20235;-70
2023/10/11 00:05:42;;;;;;;7.10;3.28;;;;;;;14.70;100.00;96680.31;5035866;28;20208;-70
2023/10/11 00:08:10;;;;;;;5.95;3.38;;;;;;;14.70;100.00;96680.31;5035253;28;20671;-69
2023/10/11 00:10:44;;;;;;;6.93;3.57;;;;;;;14.90;100.00;96683.09;5035653;28;20223;-70
2023/10/11 00:13:16;;;;;;;13.95;3.65;;;;;;;14.88;100.00;96674.50;5035693;28;21045;-70
2023/10/11 00:15:45;;;;;;;8.20;3.00;;;;;;;14.67;100.00;96672.69;5034743;28;20201;-70
2023/10/11 00:18:11;;;;;;;6.53;3.00;;;;;;;14.57;100.00;96675.88;5035744;28;20208;-70
2023/10/11 00:20:50;;;;;;;8.73;3.57;;;;;;;14.45;100.00;96667.63;5036133;28;20205;-70
2023/10/11 00:23:18;;;;;;;9.33;3.47;;;;;;;14.46;100.00;96679.88;5035305;28;20305;-69
2023/10/11 00:25:45;;;;;;;6.57;3.40;;;;;;;14.46;100.00;96674.56;5035438;28;20207;-70
2023/10/11 00:28:14;;;;;;;6.67;3.67;;;;;;;14.50;100.00;96680.28;5035916;28;20216;-70
2023/10/11 00:30:46;;;;;;;14.40;4.40;;;;;;;14.63;100.00;96679.41;5035527;28;20209;-70
2023/10/11 00:33:13;;;;;;;7.00;3.40;;;;;;;14.57;100.00;96670.59;5035502;28;20667;-69
2023/10/11 00:35:44;;;;;;;12.67;3.90;;;;;;;14.59;100.00;96669.38;5035526;28;20214;-69
2023/10/11 00:38:12;;;;;;;8.87;3.73;;;;;;;14.25;100.00;96671.91;5034937;28;20198;-69
2023/10/11 00:40:43;;;;;;;7.90;2.83;;;;;;;14.31;100.00;96673.81;5037797;28;21175;-69
2023/10/11 00:43:13;;;;;;;8.03;4.10;;;;;;;14.32;100.00;96672.81;5039128;28;21164;-69
2023/10/11 00:45:43;;;;;;;7.53;3.27;;;;;;;14.29;100.00;96665.22;5039115;28;20208;-70
2023/10/11 00:48:12;;;;;;;9.53;3.50;;;;;;;14.09;100.00;96672.16;5038923;28;20201;-70
2023/10/11 00:50:39;;;;;;;10.90;4.13;;;;;;;14.15;100.00;96666.13;5039261;28;20205;-70
2023/10/11 00:53:09;;;;;;;8.43;3.03;;;;;;;14.16;100.00;96661.63;5039210;28;20220;-70
2023/10/11 00:55:36;;;;;;;7.07;3.43;;;;;;;14.31;100.00;96659.75;5039392;28;20212;-69
2023/10/11 00:58:04;;;;;;;7.10;3.57;;;;;;;14.25;100.00;96657.84;5039304;28;20207;-69
2023/10/11 01:00:36;;;;;;;4.93;3.03;;;;;;;14.20;100.00;96658.38;5038239;28;20207;-70
2023/10/11 01:03:08;;;;;;;8.37;3.30;;;;;;;14.28;100.00;96655.66;5036591;28;20282;-70
2023/10/11 01:05:43;;;;;;;12.00;4.27;;;;;;;14.11;100.00;96653.41;5038941;28;20675;-70
2023/10/11 01:08:10;;;;;;;6.23;2.97;;;;;;;13.87;100.00;96666.16;5038711;28;20204;-70
2023/10/11 01:10:38;;;;;;;10.27;3.60;;;;;;;13.87;100.00;96656.38;5039219;28;20209;-71
2023/10/11 01:13:05;;;;;;;10.20;3.40;;;;;;;13.87;100.00;96660.88;5038210;28;20880;-69
2023/10/11 01:15:33;;;;;;;6.57;3.40;;;;;;;13.82;100.00;96658.75;5039030;28;20206;-69
2023/10/11 01:17:59;;;;;;;8.10;3.47;;;;;;;13.84;100.00;96655.94;5037544;28;20320;-70
2023/10/11 01:20:31;;;;;;;5.17;3.40;;;;;;;14.06;100.00;96653.13;5039156;28;20213;-70
2023/10/11 01:22:59;;;;;;;8.17;3.07;;;;;;;13.96;100.00;96644.66;5037762;28;20651;-70
2023/10/11 01:25:25;;;;;;;7.50;3.70;;;;;;;13.86;100.00;96651.28;5039030;28;20810;-70
2023/10/11 01:27:52;;;;;;;17.50;4.30;;;;;;;13.83;100.00;96647.16;5038129;28;20209;-69
2023/10/11 01:30:18;;;;;;;7.47;3.23;;;;;;;13.87;100.00;96648.44;5038848;28;20206;-69
2023/10/11 01:32:45;;;;;;;7.90;3.50;;;;;;;13.92;100.00;96646.03;5037703;28;20225;-69
2023/10/11 01:35:13;;;;;;;8.03;3.20;;;;;;;14.00;100.00;96641.47;5038882;28;20227;-69
2023/10/11 01:37:43;;;;;;;9.27;3.93;;;;;;;13.94;100.00;96641.38;5037551;28;20209;-69
2023/10/11 01:40:20;;;;;;;5.63;2.97;;;;;;;14.12;100.00;96641.81;5037981;28;20193;-69
2023/10/11 01:42:49;;;;;;;6.03;3.43;;;;;;;14.05;100.00;96643.53;5038561;28;20287;-69
2023/10/11 01:45:17;;;;;;;7.30;3.63;;;;;;;14.07;100.00;96637.03;5039244;28;20737;-69
2023/10/11 01:47:46;;;;;;;10.60;3.17;;;;;;;14.04;100.00;96640.06;5036990;28;21189;-70
2023/10/11 01:50:13;;;;;;;6.57;2.97;;;;;;;14.01;100.00;96636.97;5038143;28;20201;-70
2023/10/11 01:52:40;;;;;;;6.73;3.03;;;;;;;13.99;100.00;96631.84;5037795;28;20257;-69
2023/10/11 01:55:10;;;;;;;10.07;3.67;;;;;;;14.18;100.00;96620.66;5038478;28;20278;-70
2023/10/11 01:57:39;;;;;;;6.27;3.37;;;;;;;14.23;100.00;96626.22;5037250;28;20236;-70
2023/10/11 02:00:13;;;;;;;6.57;3.60;;;;;;;14.07;100.00;96625.63;5037680;28;21236;-70
2023/10/11 02:02:47;;;;;;;6.67;3.27;;;;;;;13.98;100.00;96629.41;5037829;28;20241;-69
2023/10/11 02:05:14;;;;;;;8.43;3.83;;;;;;;14.05;100.00;96631.13;5037476;28;20785;-69
2023/10/11 02:07:41;;;;;;;6.33;3.07;;;;;;;13.96;100.00;96628.75;5037225;28;20212;-69
2023/10/11 02:10:11;;;;;;;6.37;3.37;;;;;;;13.96;100.00;96620.81;5035821;28;20201;-69
2023/10/11 02:12:40;;;;;;;8.60;3.30;;;;;;;13.98;100.00;96624.91;5037201;28;21267;-69
2023/10/11 02:15:09;;;;;;;6.97;3.37;;;;;;;13.98;100.00;96624.91;5037719;28;20194;-69
2023/10/11 02:17:38;;;;;;;5.37;3.30;;;;;;;13.81;100.00;96625.34;5037333;28;20205;-69
2023/10/11 02:20:11;;;;;;;9.83;3.67;;;;;;;13.91;100.00;96625.84;5037386;28;20267;-69
2023/10/11 02:22:43;;;;;;;6.30;3.10;;;;;;;13.82;100.00;96621.66;5036831;28;20284;-69
2023/10/11 02:25:14;;;;;;;5.90;3.00;;;;;;;13.88;100.00;96626.22;5037036;28;20306;-69
2023/10/11 02:27:42;;;;;;;5.97;3.00;;;;;;;13.87;100.00;96623.78;5036404;28;20259;-69
2023/10/11 02:30:13;;;;;;;6.47;3.60;;;;;;;13.94;100.00;96628.13;5036720;28;20205;-70
2023/10/11 02:32:41;;;;;;;5.47;3.70;;;;;;;13.82;100.00;96626.97;5037500;28;20943;-69
2023/10/11 02:35:12;;;;;;;7.40;4.13;;;;;;;14.02;100.00;96628.00;5036943;28;20212;-69
2023/10/11 02:37:39;;;;;;;9.03;3.90;;;;;;;13.80;100.00;96629.00;5037036;28;20239;-69
2023/10/11 02:40:08;;;;;;;9.67;4.10;;;;;;;13.93;100.00;96628.34;5036183;28;20852;-70
2023/10/11 02:42:36;;;;;;;8.97;3.43;;;;;;;13.78;100.00;96625.72;5037470;28;20603;-69
2023/10/11 02:45:07;;;;;;;5.83;3.57;;;;;;;13.89;100.00;96627.88;5036819;28;20229;-69
2023/10/11 02:47:35;;;;;;;7.80;3.77;;;;;;;13.73;100.00;96627.28;5036816;28;20247;-69
2023/10/11 02:50:05;;;;;;;8.63;4.67;;;;;;;13.71;100.00;96624.81;5036280;28;20231;-69
2023/10/11 02:52:35;;;;;;;9.00;3.80;;;;;;;13.68;100.00;96637.63;5037026;28;20228;-70
2023/10/11 02:55:12;;;;;;;10.13;3.80;;;;;;;13.12;100.00;96627.75;5036459;28;20197;-69
2023/10/11 02:57:40;;;;;;;7.57;3.73;;;;;;;13.39;100.00;96633.19;5036538;28;20205;-69
2023/10/11 03:00:21;;;;;;;6.73;3.03;;;;;;;13.64;100.00;96629.22;5037684;28;20259;-69
2023/10/11 03:02:54;;;;;;;5.80;3.10;;;;;;;13.43;100.00;96633.66;5035578;28;20239;-69
2023/10/11 03:05:27;;;;;;;9.17;3.70;;;;;;;13.28;100.00;96632.03;5036422;28;20227;-69
2023/10/11 03:08:13;;;;;;;7.17;3.43;;;;;;;13.48;100.00;96626.78;5036678;28;20205;-69
2023/10/11 03:10:43;;;;;;;10.13;3.73;;;;;;;13.20;100.00;96629.47;5035890;28;20566;-69
2023/10/11 03:13:10;;;;;;;5.50;3.20;;;;;;;13.26;100.00;96623.44;5036496;28;20937;-69
2023/10/11 03:15:39;;;;;;;5.47;3.37;;;;;;;13.37;100.00;96621.16;5036320;28;20298;-70
2023/10/11 03:18:07;;;;;;;7.77;3.30;;;;;;;13.22;100.00;96624.81;5035779;28;20209;-69
2023/10/11 03:20:36;;;;;;;9.50;3.10;;;;;;;13.15;100.00;96615.97;5036436;28;20208;-69
2023/10/11 03:23:10;;;;;;;7.20;3.53;;;;;;;13.28;100.00;96616.16;5036280;28;20633;-69
2023/10/11 03:25:38;;;;;;;6.37;2.97;;;;;;;13.37;100.00;96620.34;5035940;28;20278;-69
2023/10/11 03:28:06;;;;;;;7.40;3.43;;;;;;;13.49;100.00;96620.50;5035687;28;20201;-69
2023/10/11 03:30:35;;;;;;;11.30;3.57;;;;;;;13.40;100.00;96616.31;5036389;28;20585;-69
2023/10/11 03:33:03;;;;;;;9.23;3.80;;;;;;;13.58;100.00;96614.09;5036119;28;20217;-70
2023/10/11 03:35:33;;;;;;;8.40;3.70;;;;;;;13.44;100.00;96617.59;5036455;28;20197;-70
2023/10/11 03:38:00;;;;;;;6.83;3.43;;;;;;;13.46;100.00;96612.91;5035522;28;20737;-70
2023/10/11 03:40:34;;;;;;;9.33;3.37;;;;;;;13.42;100.00;96614.28;5036002;28;20212;-70
2023/10/11 03:43:03;;;;;;;7.83;3.37;;;;;;;13.48;100.00;96613.56;5035816;28;20217;-69
2023/10/11 03:45:34;;;;;;;10.50;3.47;;;;;;;13.60;100.00;96612.06;5036581;28;20221;-69
2023/10/11 03:48:09;;;;;;;7.33;3.30;;;;;;;13.56;100.00;96609.97;5035855;28;20213;-69
2023/10/11 03:50:47;;;;;;;5.10;2.90;;;;;;;13.67;100.00;96610.31;5036326;28;20205;-69
2023/10/11 03:53:14;;;;;;;5.93;3.20;;;;;;;13.58;100.00;96607.94;5035664;28;20219;-69
2023/10/11 03:55:46;;;;;;;8.33;3.10;;;;;;;13.63;100.00;96605.56;5036480;28;20207;-69
2023/10/11 03:58:22;;;;;;;5.77;3.00;;;;;;;13.61;100.00;96602.31;5035429;28;20236;-69
2023/10/11 04:00:49;;;;;;;8.60;3.10;;;;;;;13.61;100.00;96603.13;5036789;28;20208;-69
2023/10/11 04:03:18;;;;;;;8.13;3.17;;;;;;;13.73;100.00;96598.16;5039525;28;20244;-70
2023/10/11 04:05:47;;;;;;;11.33;4.23;;;;;;;13.61;100.00;96603.13;5039117;28;20221;-70
2023/10/11 04:08:21;;;;;;;7.77;3.57;;;;;;;13.48;100.00;96596.88;5038170;28;20201;-69
2023/10/11 04:10:49;;;;;;;9.50;3.63;;;;;;;13.49;100.00;96588.72;5039588;28;20207;-70
2023/10/11 04:13:18;;;;;;;8.97;3.47;;;;;;;13.56;100.00;96605.50;5038461;28;20231;-69
2023/10/11 04:15:49;;;;;;;5.50;2.80;;;;;;;13.58;100.00;96598.19;5042634;28;20234;-69
2023/10/11 04:18:32;;;;;;;5.73;3.10;;;;;;;13.60;100.00;96605.94;5043624;28;20263;-69
2023/10/11 04:21:25;;;;;;;6.43;3.13;;;;;;;13.54;100.00;96601.38;5043669;28;20228;-69
2023/10/11 04:23:46;;;;;;;7.37;3.40;;;;;;;13.68;100.00;96603.19;5042879;28;20731;-69
2023/10/11 04:26:36;;;;;;;10.40;3.27;;;;;;;13.64;100.00;96608.03;5043880;28;20205;-68
2023/10/11 04:29:17;;;;;;;12.63;4.17;;;;;;;13.73;100.00;96601.59;5041559;28;20286;-69
2023/10/11 04:32:09;;;;;;;5.93;2.83;;;;;;;13.65;100.00;96607.03;5043548;28;20208;-69
2023/10/11 04:34:38;;;;;;;6.03;2.67;;;;;;;13.68;100.00;96609.31;5039862;28;20623;-69
2023/10/11 04:37:07;;;;;;;7.90;3.57;;;;;;;13.56;100.00;96605.50;5038815;28;20298;-68
2023/10/11 04:39:34;;;;;;;7.07;3.33;;;;;;;13.47;100.00;96617.19;5038490;28;20205;-68
2023/10/11 04:42:00;;;;;;;11.50;3.30;;;;;;;13.44;100.00;96611.44;5038891;28;20228;-69
2023/10/11 04:44:31;;;;;;;6.33;3.07;;;;;;;13.40;100.00;96611.03;5039162;28;20313;-68
2023/10/11 04:46:58;;;;;;;10.97;4.17;;;;;;;13.50;100.00;96613.38;5039211;28;20294;-68
2023/10/11 04:49:25;;;;;;;9.47;3.13;;;;;;;13.42;100.00;96613.47;5038299;28;20206;-69
2023/10/11 04:51:56;;;;;;;7.27;3.60;;;;;;;13.50;100.00;96608.06;5039457;28;20682;-69
2023/10/11 04:54:35;;;;;;;6.97;3.60;;;;;;;13.48;100.00;96612.75;5039350;28;20625;-69
2023/10/11 04:57:06;;;;;;;5.43;3.07;;;;;;;13.33;100.00;96621.69;5039510;28;20290;-68
2023/10/11 04:59:36;;;;;;;6.27;3.00;;;;;;;13.37;100.00;96618.50;5038697;28;20217;-68
2023/10/11 05:02:08;;;;;;;9.03;3.30;;;;;;;13.40;100.00;96620.78;5038920;28;20233;-70
2023/10/11 05:04:42;;;;;;;7.37;2.97;;;;;;;13.37;100.00;96625.63;5039239;28;20286;-68
2023/10/11 05:07:10;;;;;;;6.53;3.40;;;;;;;13.37;100.00;96625.63;5038831;28;20229;-69
2023/10/11 05:09:41;;;;;;;7.73;3.10;;;;;;;13.29;100.00;96628.34;5039445;28;20293;-70
2023/10/11 05:12:09;;;;;;;7.70;3.17;;;;;;;13.32;100.00;96628.81;5038255;28;20220;-70
2023/10/11 05:14:40;;;;;;;6.53;3.17;;;;;;;13.34;100.00;96620.69;5037950;28;21000;-69
2023/10/11 05:20:20;;;;;;;6.10;3.10;;;;;;;13.23;100.00;96619.34;5023250;28;20743;-69
2023/10/11 05:22:52;;;;;;;8.60;3.37;;;;;;;13.52;100.00;96621.97;5037723;28;20225;-69
2023/10/11 05:28:07;;;;;;;9.70;3.57;;;;;;;13.30;100.00;96630.84;5037930;28;20212;-69
2023/10/11 05:30:33;;;;;;;6.40;2.60;;;;;;;13.37;100.00;96626.44;5038586;28;20200;-69
2023/10/11 05:33:15;;;;;;;9.60;3.80;;;;;;;13.33;100.00;96630.47;5038033;28;20235;-68
2023/10/11 05:36:13;;;;;;;9.03;2.97;;;;;;;13.35;100.00;96627.63;5038500;28;20967;-69
2023/10/11 05:52:25;;;;;;;8.57;3.13;;;;;;;13.45;100.00;96645.69;5033681;28;20246;-70
2023/10/11 05:54:54;;;;;;;4.67;2.37;;;;;;;13.56;100.00;96650.50;5035264;28;20208;-70
2023/10/11 05:57:23;;;;;;;7.27;3.20;;;;;;;13.32;100.00;96649.19;5036098;28;20207;-70
2023/10/11 05:59:50;;;;;;;13.17;2.53;;;;;;;13.39;100.00;96657.03;5037654;28;20363;-69
2023/10/11 06:02:18;;;;;;;7.37;3.77;;;;;;;13.39;100.00;96646.44;5037358;28;20323;-69
2023/10/11 06:04:45;;;;;;;11.93;2.90;;;;;;;13.52;100.00;96651.88;5036914;28;20225;-70
2023/10/11 06:07:15;;;;;;;7.57;2.93;;;;;;;13.53;100.00;96661.47;5037176;28;20209;-68
2023/10/11 06:09:45;;;;;;;4.87;2.43;;;;;;;13.57;100.00;96664.59;5035969;28;20201;-69
2023/10/11 06:12:23;;;;;;;7.13;2.70;;;;;;;13.66;100.00;96668.78;5037117;28;20303;-69
2023/10/11 06:14:51;;;;;;;15.47;3.20;;;;;;;13.55;100.00;96670.03;5037679;28;20207;-69
2023/10/11 06:17:21;;;;;;;5.87;2.90;;;;;;;13.55;100.00;96666.59;5037205;28;20201;-69
2023/10/11 06:19:53;;;;;;;8.63;2.83;;;;;;;13.67;100.00;96665.94;5037239;28;20236;-69
2023/10/11 06:22:21;;;;;;;7.53;2.70;;;;;;;13.61;100.00;96655.28;5037787;28;20248;-69
2023/10/11 06:24:48;;;;;;;6.43;2.77;;;;;;;14.01;100.00;96664.31;5036532;28;20231;-70
2023/10/11 06:30:06;;;;;;;9.17;2.93;;;;;;;13.94;100.00;96659.09;5037984;28;20302;-69
2023/10/11 06:32:35;;;;;;;10.70;3.13;;;;;;;14.40;100.00;96659.41;5036821;28;20276;-70
2023/10/11 06:35:04;;;;;;;7.10;2.97;;;;;;;14.65;100.00;96653.53;5035830;28;20581;-70
2023/10/11 06:37:35;;;;;;;10.20;3.17;;;;;;;14.44;100.00;96654.56;5034544;28;20286;-69
2023/10/11 06:40:13;;;;;;;9.80;2.93;;;;;;;14.21;100.00;96659.22;5036156;28;20197;-69
2023/10/11 06:42:42;;;;;;;11.13;3.53;;;;;;;14.51;100.00;96660.72;5035516;28;20224;-70
2023/10/11 06:45:16;;;;;;;12.20;3.10;;;;;;;14.38;100.00;96661.41;5035138;28;20596;-69
2023/10/11 06:47:47;;;;;;;11.27;3.50;;;;;;;14.62;100.00;96668.19;5035238;28;20287;-70
2023/10/11 06:50:14;;;;;;;8.97;3.07;;;;;;;14.66;100.00;96660.47;5037050;28;20201;-69
2023/10/11 06:52:43;;;;;;;9.13;3.43;;;;;;;14.91;100.00;96664.34;5035557;28;20711;-68
2023/10/11 06:55:25;;;;;;;8.83;3.13;;;;;;;15.03;100.00;96670.75;5036931;28;21499;-70
2023/10/11 06:57:54;;;;;;;12.00;3.60;;;;;;;15.02;100.00;96669.13;5035485;28;20209;-69
2023/10/11 07:00:23;;;;;;;7.97;2.70;;;;;;;15.09;100.00;96667.31;5036807;28;20671;-70
2023/10/11 07:02:52;;;;;;;8.60;2.70;;;;;;;14.89;100.00;96670.84;5036165;28;20232;-69
2023/10/11 07:05:20;;;;;;;20.40;3.60;;;;;;;14.87;100.00;96671.03;5035562;28;20224;-70
2023/10/11 07:07:48;;;;;;;6.23;2.77;;;;;;;15.00;100.00;96665.81;5036035;28;20201;-69
2023/10/11 07:10:32;;;;;;;6.47;3.00;;;;;;;15.26;100.00;96671.31;5037109;28;20193;-70
2023/10/11 07:13:04;;;;;;;5.80;2.60;;;;;;;15.28;100.00;96667.47;5036350;28;20225;-69
2023/10/11 07:15:42;;;;;;;5.13;2.50;;;;;;;15.54;100.00;96661.47;5036686;28;20582;-68
2023/10/11 07:18:11;;;;;;;13.27;3.30;;;;;;;15.49;100.00;96664.75;5035401;28;20201;-69
2023/10/11 07:20:48;;;;;;;6.53;3.30;;;;;;;15.41;100.00;96654.28;5036439;28;20741;-69
2023/10/11 07:23:19;;;;;;;9.50;3.10;;;;;;;15.41;100.00;96658.75;5036396;28;20752;-69
2023/10/11 07:25:59;;;;;;;6.83;3.20;;;;;;;15.57;100.00;96653.13;5036338;28;20225;-71
2023/10/11 07:28:35;;;;;;;4.30;2.28;;;;;;;15.69;100.00;96648.88;5035984;28;20212;-69
2023/10/11 07:31:04;;;;;;;5.65;2.80;;;;;;;15.82;100.00;96646.28;5036640;28;20209;-69
2023/10/11 07:33:29;;;;;;;6.25;2.95;;;;;;;15.79;100.00;96650.16;5035518;28;20392;-69
2023/10/11 07:35:59;;;;;;;6.70;2.77;;;;;;;15.88;100.00;96655.09;5036033;28;20635;-70
2023/10/11 07:38:32;;;;;;;5.30;2.92;;;;;;;15.93;100.00;96654.50;5034236;28;20299;-71
2023/10/11 07:41:04;;;;;;;6.63;3.05;;;;;;;16.14;100.00;96663.16;5036824;28;20201;-71
2023/10/11 07:43:33;;;;;;;4.90;2.50;;;;;;;16.37;100.00;96655.66;5035871;28;20233;-71
2023/10/11 07:46:02;;;;;;;8.10;2.70;;;;;;;16.43;100.00;96659.34;5035815;28;20330;-71
2023/10/11 07:48:32;;;;;;;12.05;2.58;;;;;;;16.21;100.00;96666.63;5034667;28;20255;-69
2023/10/11 07:51:03;;;;;;;7.15;2.72;;;;;;;16.52;100.00;96658.94;5034170;28;20316;-68
2023/10/11 07:53:29;;;;;;;6.15;2.95;;;;;;;16.60;100.00;96664.09;5035838;28;20225;-68
2023/10/11 07:55:58;;;;;;;9.05;2.72;;;;;;;16.71;100.00;96664.31;5036230;28;20208;-69
2023/10/11 07:58:32;;;;;;;5.38;2.25;;;;;;;16.72;100.00;96659.78;5034996;28;20209;-68
2023/10/11 08:01:03;;;;;;;6.90;2.95;;;;;;;17.09;100.00;96651.97;5035885;28;20287;-69
2023/10/11 08:03:34;;;;;;;7.53;2.28;;;;;;;16.89;100.00;96661.00;5034293;28;20227;-70
2023/10/11 08:06:05;;;;;;;8.88;2.13;;;;;;;17.18;100.00;96659.56;5033864;28;20225;-71
2023/10/11 08:08:32;;;;;;;4.80;2.15;;;;;;;17.28;100.00;96662.63;5034616;28;20235;-71
2023/10/11 08:11:04;;;;;;;3.72;2.00;;;;;;;17.54;100.00;96667.91;5035692;28;20216;-71
2023/10/11 08:13:31;;;;;;;5.43;2.97;;;;;;;17.57;100.00;96667.50;5035747;28;20780;-70
2023/10/11 08:15:58;;;;;;;5.20;2.55;;;;;;;17.78;100.00;96675.19;5035338;28;20205;-71
2023/10/11 08:18:27;;;;;;;6.28;2.05;;;;;;;18.03;100.00;96668.16;5034951;28;20205;-70
2023/10/11 08:20:53;;;;;;;10.15;2.90;;;;;;;18.00;100.00;96669.38;5035782;28;20201;-70
2023/10/11 08:23:29;;;;;;;7.43;2.95;;;;;;;18.14;100.00;96668.28;5035340;28;20221;-71
2023/10/11 08:25:56;;;;;;;9.20;2.47;;;;;;;18.05;100.00;96666.06;5035231;28;20252;-70
2023/10/11 08:28:28;;;;;;;9.30;2.72;;;;;;;18.18;100.00;96658.06;5034623;28;20205;-71
2023/10/11 08:30:57;;;;;;;2.78;1.60;;;;;;;18.33;100.00;96664.75;5035528;28;21006;-70
2023/10/11 08:33:25;;;;;;;10.55;2.20;;;;;;;18.58;100.00;96658.41;5034763;28;20769;-70
2023/10/11 08:35:53;;;;;;;4.85;2.28;;;;;;;18.88;100.00;96662.09;5035918;28;20233;-71
2023/10/11 08:38:24;;;;;;;8.18;2.35;;;;;;;18.61;100.00;96663.31;5035272;28;20204;-71
2023/10/11 08:40:51;;;;;;;5.18;2.15;;;;;;;19.01;100.00;96664.63;5035489;28;20529;-71
2023/10/11 08:43:18;;;;;;;10.45;2.22;;;;;;;19.15;100.00;96660.84;5034643;28;21175;-71
2023/10/11 08:45:49;;;;;;;10.98;2.25;;;;;;;19.33;100.00;96669.69;5034788;28;20231;-71
2023/10/11 08:48:17;;;;;;;5.85;2.03;;;;;;;19.22;100.00;96672.28;5034303;28;20201;-71
2023/10/11 08:50:51;;;;;;;5.63;2.13;;;;;;;19.40;100.00;96658.94;5034818;28;20205;-71
2023/10/11 08:53:21;;;;;;;5.22;2.03;;;;;;;19.68;100.00;96665.44;5035094;28;20286;-71
2023/10/11 08:55:51;;;;;;;5.15;1.73;;;;;;;19.67;100.00;96651.25;5035727;28;20201;-71
2023/10/11 08:58:27;;;;;;;3.72;1.90;;;;;;;19.93;100.00;96658.97;5034887;28;20205;-69
2023/10/11 09:00:55;;;;;;;6.45;1.65;;;;;;;20.01;100.00;96653.34;5037545;28;20208;-69
2023/10/11 09:03:23;;;;;;;10.18;2.38;;;;;;;20.24;100.00;96645.44;5038560;28;20311;-69
2023/10/11 09:05:58;;;;;;;3.38;1.52;;;;;;;20.11;100.00;96642.94;5039021;28;20231;-69
2023/10/11 09:08:31;;;;;;;4.72;1.67;;;;;;;20.37;100.00;96637.22;5038123;28;20665;-69
2023/10/11 09:11:11;;;;;;;4.80;2.28;;;;;;;20.66;100.00;96649.75;5038902;28;20201;-68
2023/10/11 09:13:37;;;;;;;5.78;2.03;;;;;;;20.63;100.00;96645.66;5038393;28;20232;-71
2023/10/11 09:16:12;;;;;;;5.95;1.85;;;;;;;20.88;100.00;96646.34;5038706;28;20197;-69
2023/10/11 09:18:39;;;;;;;5.57;2.13;;;;;;;20.79;100.00;96646.91;5038586;28;20203;-69
2023/10/11 09:21:15;;;;;;;6.03;2.25;;;;;;;21.14;100.00;96643.22;5038181;28;20193;-68
2023/10/11 09:23:46;;;;;;;6.63;1.58;;;;;;;20.99;100.00;96638.31;5037516;28;20494;-71
2023/10/11 09:26:20;;;;;;;12.05;2.22;;;;;;;20.73;100.00;96639.78;5036436;28;20802;-71
2023/10/11 09:28:56;;;;;;;5.45;2.55;;;;;;;20.96;100.00;96638.78;5036493;28;20202;-68
2023/10/11 09:31:24;;;;;;;4.68;1.83;;;;;;;21.19;100.00;96641.47;5038264;28;20211;-71
2023/10/11 09:33:52;;;;;;;8.45;2.45;;;;;;;21.17;100.00;96637.41;5037942;28;20575;-70
2023/10/11 09:36:20;;;;;;;4.72;1.85;;;;;;;21.30;100.00;96637.97;5037894;28;20684;-71
2023/10/11 09:38:54;;;;;;;7.95;2.33;;;;;;;21.56;100.00;96640.22;5038375;28;20197;-70
2023/10/11 09:41:24;;;;;;;9.52;1.70;;;;;;;21.79;100.00;96640.16;5037614;28;20670;-71
2023/10/11 09:43:54;;;;;;;3.92;1.90;;;;;;;21.71;100.00;96638.66;5035913;28;20231;-70
2023/10/11 09:46:22;;;;;;;5.47;1.90;;;;;;;21.71;100.00;96643.22;5037562;28;20248;-71
2023/10/11 09:48:49;;;;;;;6.43;2.88;;;;;;;21.79;100.00;96640.16;5035052;28;20659;-71
2023/10/11 09:51:17;;;;;;;4.78;1.80;;;;;;;21.76;100.00;96640.66;5037545;28;20198;-71
2023/10/11 09:53:49;;;;;;;4.70;2.20;;;;;;;21.92;100.00;96638.06;5038111;28;20312;-71
2023/10/11 09:56:35;;;;;;;8.05;2.13;;;;;;;22.33;100.00;96635.94;5037867;28;20209;-71
2023/10/11 09:59:19;;;;;;;6.57;1.83;;;;;;;22.67;100.00;96634.16;5036609;28;20201;-71
2023/10/11 10:01:55;;;;;;;3.40;1.65;;;;;;;22.74;100.00;96635.63;5038961;28;20204;-71
2023/10/11 10:04:54;;;;;;;5.60;1.80;;;;;;;22.84;98.37;96646.56;5037957;28;20201;-70
2023/10/11 10:07:24;;;;;;;11.25;3.45;;;;;;;22.43;99.72;96633.47;5036517;28;21400;-71
2023/10/11 10:09:52;;;;;;;5.68;2.80;;;;;;;22.58;99.04;96632.91;5038382;28;20209;-71
2023/10/11 10:12:21;;;;;;;4.80;1.58;;;;;;;22.80;97.77;96630.09;5036908;28;20280;-71
2023/10/11 10:14:51;;;;;;;5.78;2.15;;;;;;;22.80;99.10;96629.28;5037300;28;20209;-71
2023/10/11 10:17:19;;;;;;;7.03;1.83;;;;;;;23.02;100.00;96622.16;5037517;28;20263;-71
2023/10/11 10:19:47;;;;;;;6.40;1.90;;;;;;;23.16;98.05;96628.84;5037138;28;20674;-71
2023/10/11 10:22:16;;;;;;;6.80;1.92;;;;;;;23.42;98.93;96624.41;5037037;28;20231;-71
2023/10/11 10:24:43;;;;;;;4.32;1.75;;;;;;;23.50;97.51;96629.34;5037832;28;20560;-71
2023/10/11 10:27:40;;;;;;;4.55;2.13;;;;;;;23.73;94.12;96620.31;5036756;28;20714;-71
2023/10/11 10:30:10;;;;;;;3.97;1.70;;;;;;;23.75;97.99;96619.00;5036050;28;20306;-71
2023/10/11 10:32:38;;;;;;;9.98;2.47;;;;;;;23.31;96.90;96625.31;5036089;28;20216;-71
2023/10/11 10:35:36;;;;;;;6.45;1.83;;;;;;;23.96;93.45;96616.28;5035469;28;20231;-71
2023/10/11 10:38:05;;;;;;;11.82;1.67;;;;;;;23.71;96.84;96611.66;5035092;28;20762;-71
2023/10/11 10:40:37;;;;;;;8.80;1.85;;;;;;;23.83;91.91;96610.47;5035473;28;20212;-71
2023/10/11 10:43:20;;;;;;;6.32;1.65;;;;;;;23.96;91.71;96612.78;5035176;28;20249;-71
2023/10/11 10:45:48;;;;;;;9.77;2.10;;;;;;;23.78;92.21;96620.34;5035255;28;20197;-71
2023/10/11 10:48:18;;;;;;;8.65;2.53;;;;;;;23.91;92.19;96601.94;5034369;28;20317;-71
2023/10/11 10:50:48;;;;;;;5.55;1.58;;;;;;;23.99;90.88;96604.19;5035620;28;20205;-71
2023/10/11 10:53:15;;;;;;;7.28;2.22;;;;;;;24.04;88.47;96596.19;5034513;28;20225;-71
2023/10/11 10:55:42;;;;;;;5.75;1.65;;;;;;;24.01;89.72;96602.88;5035263;28;20291;-71
2023/10/11 10:58:15;;;;;;;10.55;1.80;;;;;;;23.89;86.45;96598.69;5034611;28;20212;-71
2023/10/11 11:00:43;;;;;;;10.95;2.72;;;;;;;24.08;86.64;96594.63;5035384;28;20201;-71
2023/10/11 11:03:24;;;;;;;3.90;1.63;;;;;;;24.14;85.94;96585.53;5034607;28;20224;-70
2023/10/11 11:05:57;;;;;;;4.00;2.00;;;;;;;23.94;87.10;96585.28;5034922;28;20197;-70
2023/10/11 11:08:27;;;;;;;3.00;1.33;;;;;;;23.76;89.79;96572.16;5033429;28;20302;-71
2023/10/11 11:10:59;;;;;;;8.55;2.05;;;;;;;24.04;87.72;96569.25;5034875;28;20728;-71
2023/10/11 11:13:29;;;;;;;8.55;1.67;;;;;;;24.21;89.53;96560.03;5036520;28;20236;-71
2023/10/11 11:15:56;;;;;;;3.03;1.80;;;;;;;23.96;85.01;96565.13;5037227;28;20193;-71
2023/10/11 11:18:33;;;;;;;6.63;2.47;;;;;;;23.99;84.88;96561.13;5034132;28;20207;-70
2023/10/11 11:21:17;;;;;;;1.92;1.58;;;;;;;23.83;85.01;96553.94;5034453;28;20197;-70
2023/10/11 11:23:44;;;;;;;3.88;1.77;;;;;;;23.59;88.04;96552.53;5034689;28;20213;-71
2023/10/11 11:26:15;;;;;;;8.18;1.42;;;;;;;23.91;87.69;96553.50;5033513;28;20591;-71
2023/10/11 11:28:43;;;;;;;4.63;2.08;;;;;;;24.06;85.53;96537.50;5034568;28;20209;-69
2023/10/11 11:31:13;;;;;;;6.22;2.10;;;;;;;24.08;85.27;96533.50;5035496;28;21051;-69
2023/10/11 11:34:05;;;;;;;5.40;2.13;;;;;;;24.02;84.46;96531.81;5036295;28;20271;-69
2023/10/11 11:36:30;;;;;;;2.65;1.17;;;;;;;24.02;84.08;96534.50;5035658;28;20291;-69
2023/10/11 11:39:16;;;;;;;9.30;1.70;;;;;;;24.22;84.70;96526.66;5036195;28;20312;-71
2023/10/11 11:41:42;;;;;;;6.20;1.80;;;;;;;24.42;84.84;96539.53;5035563;28;20204;-71
2023/10/11 11:44:19;;;;;;;5.72;2.10;;;;;;;24.32;84.46;96525.94;5037106;28;20197;-70
2023/10/11 11:46:50;;;;;;;12.07;1.65;;;;;;;24.58;83.41;96523.25;5036277;28;20762;-71
2023/10/11 11:49:21;;;;;;;3.72;1.48;;;;;;;24.88;82.29;96526.97;5035649;28;20411;-70
2023/10/11 11:51:50;;;;;;;10.02;2.13;;;;;;;24.66;81.93;96517.38;5036543;28;20205;-71
2023/10/11 11:54:18;;;;;;;3.40;1.50;;;;;;;24.69;82.95;96520.38;5036397;28;20642;-71
2023/10/11 11:56:45;;;;;;;9.32;1.65;;;;;;;24.49;86.87;96511.31;5033997;28;20208;-71
2023/10/11 11:59:17;;;;;;;2.65;1.33;;;;;;;24.57;85.00;96511.63;5033413;28;20599;-71
2023/10/11 12:01:44;;;;;;;3.38;1.80;;;;;;;24.67;84.65;96503.63;5033959;28;20259;-70
2023/10/11 12:04:13;;;;;;;10.73;1.98;;;;;;;24.78;81.63;96508.03;5035097;28;20680;-70